Aeroporto :
LOGIN :

Iscrizione | Disclaimer

   EN    FR    IT 

 










Sommario :    VFR   VFR Marginale   IFR   IFR Intensivo   IFR Molto Intensivo
Visibilità : 
Base nubi : 
>= 8 km
>= 3000ft
5 / 8 km
1000 / 3000 ft
1500m / 5 km
500 / 1000 ft
800 / 1500m
200 / 500 ft
< 800m
< 200 ft
Simboli :   Temporali  Nebbia  Neve Forte  Precipitazioni Forti  Vento > 20 kt
SIGMETs :   Varie  Temporali  Ghiacco  Turbolenza  Onda orograficha  Ceneri Vulcaniche






- Altitudine del aeroporto : 1115 ft
- Codice IATA : GRZ


LOWG - Graz

ULTIMO METAR :
  • 141220Z 15003KT 9999 FEW004 03/01 Q0999 R17/29//95 NOSIG

METARs OBSOLETI :
  • 141150Z VRB01KT 9999 FEW004 04/01 Q0999 R17/29//95 NOSIG
  • 141120Z 36003KT 9999 FEW004 02/01 Q0999 R17/29//95 NOSIG
  • 141050Z 02003KT 330V080 8000 FEW004 SCT110 01/00 Q0999 R17/29//95 NOSIG
  • 141020Z 09003KT 040V140 3500 BR FEW001 SCT120 M00/M01 Q0999 R17/29//95 BECMG 6000 NSW
  • 140950Z VRB02KT 5000 BR FEW001 SCT080 BKN120 M00/M01 Q0999 R17/29//95 TEMPO -FZRA

TAF TAF LOWG
Valido dal 14 a 12 ore il 15 a 12 ore UTC


141115Z 1412/1512 VRB02KT 8000 FEW050 SCT120 TX04/1512Z TNM04/1502Z
BECMG 1415/1417 4000 BR
TEMPO 1418/1509 0800 FZBCFG FEW001
TEMPO 1419/1507 0200 FZFG BKN001
BECMG 1509/1511 8000 NSW



MetMap, La meteo Aeronautica in un colpo d'occhio ! - Copyright ORBIFLY Dicembre 2007 - Disclaimer

ORBIFLY MET'MAP TEAM :

Programmazione e sviluppo : Alexandra Zaïnal
Concezione : Baudouin d'Aumeries
Aiuto per la programmazione : Marc-Olivier Méhu
Supporto tecnico e logistico : Manuel Goepfert
Aiuto per la traduzione : Arnaldo La Scala

Contatto : metmap@orbifly.com




FONTI E CREDITI :

   NOAA